createdAt,value
2022-11-30T10:22:14.721Z,3.50
2022-11-30T10:25:00.133Z,5.70
2022-11-30T10:27:41.972Z,5.80
2022-11-30T10:30:17.005Z,5.90
2022-11-30T10:32:48.325Z,6.00
2022-11-30T10:35:22.279Z,6.00
2022-11-30T10:37:54.231Z,5.80
2022-11-30T10:40:33.442Z,5.80
2022-11-30T10:43:10.546Z,5.70
2022-11-30T10:45:45.598Z,5.80
2022-11-30T10:48:18.981Z,5.80
2022-11-30T10:50:47.667Z,5.70
2022-11-30T10:53:17.216Z,5.70
2022-11-30T10:55:50.854Z,5.80
2022-11-30T10:58:24.004Z,5.80
2022-11-30T11:00:59.822Z,6.10
2022-11-30T11:03:28.846Z,6.20
2022-11-30T11:06:15.439Z,6.30
2022-11-30T11:08:47.028Z,6.40
2022-11-30T11:11:34.793Z,6.40
2022-11-30T11:14:16.390Z,6.60
2022-11-30T11:16:56.311Z,6.50
2022-11-30T11:19:37.630Z,6.50
2022-11-30T11:22:08.584Z,6.40
2022-11-30T11:24:38.112Z,6.60
2022-11-30T11:27:06.525Z,6.40
2022-11-30T11:29:36.256Z,6.50
2022-11-30T11:32:22.946Z,6.20
2022-11-30T11:34:51.632Z,6.10
2022-11-30T11:37:24.611Z,6.20
2022-11-30T11:40:06.960Z,6.00
2022-11-30T11:42:38.621Z,6.30
2022-11-30T11:45:16.149Z,6.10
2022-11-30T11:47:47.092Z,6.20
2022-11-30T11:51:05.125Z,6.30
2022-11-30T11:53:25.197Z,6.10
2022-11-30T11:56:00.592Z,6.20
2022-11-30T11:58:41.829Z,6.20
2022-11-30T12:01:39.272Z,6.30
2022-11-30T12:04:21.709Z,6.40
2022-11-30T12:06:53.811Z,6.30
2022-11-30T12:09:29.748Z,6.20
2022-11-30T12:11:59.301Z,6.00
2022-11-30T12:14:29.359Z,6.00
2022-11-30T12:17:20.247Z,6.10
2022-11-30T12:19:59.012Z,5.90
2022-11-30T12:22:52.599Z,5.90
2022-11-30T12:25:26.488Z,5.90
2022-11-30T12:28:05.755Z,6.00
2022-11-30T12:30:41.866Z,6.10
2022-11-30T12:33:16.674Z,6.10
2022-11-30T12:35:57.595Z,6.00
2022-11-30T12:38:36.864Z,6.00
2022-11-30T12:41:20.200Z,6.10
2022-11-30T12:43:55.760Z,6.10
2022-11-30T12:46:31.104Z,6.10
2022-11-30T12:49:14.289Z,6.00
2022-11-30T12:51:49.933Z,5.80
2022-11-30T12:54:27.282Z,5.70
2022-11-30T12:57:01.320Z,5.90
2022-11-30T12:59:38.374Z,5.80
2022-11-30T13:02:29.078Z,5.70
2022-11-30T13:05:04.039Z,5.40
2022-11-30T13:07:39.050Z,5.50
2022-11-30T13:10:19.893Z,5.40
2022-11-30T13:12:52.216Z,5.20
2022-11-30T13:15:24.898Z,5.30
2022-11-30T13:17:54.442Z,5.30
2022-11-30T13:20:26.748Z,5.40
2022-11-30T13:23:00.108Z,5.50
2022-11-30T13:26:07.024Z,5.60
2022-11-30T13:28:32.280Z,5.70
2022-11-30T13:31:07.493Z,5.80
2022-11-30T13:33:40.534Z,6.00
2022-11-30T13:36:24.151Z,6.10
2022-11-30T13:39:30.977Z,6.10
2022-11-30T13:42:31.524Z,6.10
2022-11-30T13:45:01.969Z,6.10
2022-11-30T13:47:34.468Z,6.10
2022-11-30T13:50:07.820Z,6.20
2022-11-30T13:53:08.595Z,6.10
2022-11-30T13:55:58.595Z,6.20
2022-11-30T13:58:27.889Z,6.30
2022-11-30T14:01:21.352Z,6.20
2022-11-30T14:04:30.471Z,6.20
2022-11-30T14:06:59.848Z,6.10
2022-11-30T14:10:07.265Z,5.70
2022-11-30T14:13:00.441Z,5.70
2022-11-30T14:15:55.298Z,5.60
2022-11-30T14:18:40.476Z,5.60
2022-11-30T14:21:34.634Z,5.60
2022-11-30T14:24:06.290Z,5.60
2022-11-30T14:26:39.318Z,5.60
2022-11-30T14:29:17.600Z,5.70
2022-11-30T14:31:54.011Z,5.70
2022-11-30T14:34:27.303Z,5.70
2022-11-30T14:37:00.460Z,5.60
2022-11-30T14:39:34.717Z,5.60
2022-11-30T14:42:03.814Z,5.50
2022-11-30T14:44:36.174Z,5.50
2022-11-30T14:47:15.244Z,5.50
2022-11-30T14:49:48.049Z,5.30
2022-11-30T14:52:34.785Z,5.20
2022-11-30T14:55:16.976Z,5.30
2022-11-30T14:57:50.312Z,5.20
2022-11-30T15:00:20.771Z,5.20
2022-11-30T15:02:50.500Z,5.00
2022-11-30T15:05:22.082Z,5.00
2022-11-30T15:07:52.111Z,5.10
2022-11-30T15:10:29.746Z,5.00
2022-11-30T15:12:58.911Z,5.00
2022-11-30T15:15:28.688Z,5.10
2022-11-30T15:17:58.527Z,5.00
2022-11-30T15:20:30.576Z,5.00
2022-11-30T15:23:01.123Z,5.00
2022-11-30T15:25:38.258Z,4.90
2022-11-30T15:28:07.945Z,4.90
2022-11-30T15:30:39.452Z,4.70
2022-11-30T15:33:07.606Z,4.50
2022-11-30T15:36:04.934Z,4.70
2022-11-30T15:38:27.352Z,4.60
2022-11-30T15:41:03.392Z,4.30
2022-11-30T15:43:37.763Z,4.10
2022-11-30T15:46:07.068Z,4.10
2022-11-30T15:48:39.279Z,4.20
2022-11-30T15:51:07.868Z,4.10
2022-11-30T15:53:50.075Z,3.90
2022-11-30T15:56:25.170Z,3.90
2022-11-30T15:59:02.799Z,3.90
2022-11-30T16:01:32.388Z,3.90
2022-11-30T16:04:08.108Z,4.00
2022-11-30T16:06:39.325Z,3.90
2022-11-30T16:09:20.470Z,4.00
2022-11-30T16:11:50.748Z,4.10
2022-11-30T16:14:18.797Z,4.00
2022-11-30T16:16:47.964Z,4.00
2022-11-30T16:19:16.233Z,4.00
2022-11-30T16:21:44.224Z,4.00
2022-11-30T16:24:15.867Z,4.00
2022-11-30T16:26:52.298Z,3.80
2022-11-30T16:29:20.725Z,3.70
2022-11-30T16:31:49.129Z,3.70
2022-11-30T16:34:17.314Z,3.70
2022-11-30T16:36:45.204Z,3.70
2022-11-30T16:39:14.448Z,3.70
2022-11-30T16:41:44.272Z,3.80
2022-11-30T16:44:14.756Z,3.90
2022-11-30T16:46:42.663Z,4.00
2022-11-30T16:49:10.870Z,4.00
2022-11-30T16:51:41.644Z,4.00
2022-11-30T16:54:12.423Z,4.00
2022-11-30T16:56:42.083Z,3.80
2022-11-30T16:59:16.274Z,3.70
2022-11-30T17:01:47.557Z,3.60
2022-11-30T17:04:19.998Z,3.50
2022-11-30T17:06:51.167Z,3.60
2022-11-30T17:09:21.696Z,3.40
2022-11-30T17:11:52.555Z,3.50
2022-11-30T17:14:21.964Z,3.60
2022-11-30T17:16:50.144Z,3.50
2022-11-30T17:19:18.682Z,3.50
2022-11-30T17:21:48.343Z,3.50
2022-11-30T17:24:16.497Z,3.60
2022-11-30T17:26:44.615Z,3.60
2022-11-30T17:29:14.246Z,3.50
2022-11-30T17:31:42.498Z,3.40
2022-11-30T17:34:10.615Z,3.50
2022-11-30T17:36:38.542Z,3.60
2022-11-30T17:39:07.919Z,3.70
2022-11-30T17:41:36.184Z,3.70
2022-11-30T17:44:04.400Z,3.80
2022-11-30T17:46:34.013Z,3.50
2022-11-30T17:49:02.447Z,3.60
2022-11-30T17:51:30.860Z,3.60
2022-11-30T17:53:59.152Z,3.60
2022-11-30T17:56:27.312Z,3.60
2022-11-30T17:58:55.226Z,3.70
2022-11-30T18:01:26.540Z,3.70
2022-11-30T18:07:11.688Z,3.70
2022-11-30T18:09:42.726Z,3.60
2022-11-30T18:12:12.235Z,3.60
2022-11-30T18:14:40.549Z,3.70
2022-11-30T18:17:08.653Z,3.70
2022-11-30T18:19:38.035Z,3.60
2022-11-30T18:22:06.102Z,3.40
2022-11-30T18:24:34.321Z,3.50
2022-11-30T18:27:02.237Z,3.50
2022-11-30T18:29:30.244Z,3.40
2022-11-30T18:31:58.484Z,3.40
2022-11-30T18:34:26.605Z,3.60
2022-11-30T18:36:56.181Z,3.50
2022-11-30T18:39:24.228Z,3.50
2022-11-30T18:41:52.174Z,3.60
2022-11-30T18:44:20.349Z,3.60
2022-11-30T18:46:48.259Z,3.70
2022-11-30T18:49:16.456Z,3.70
2022-11-30T18:51:44.351Z,3.60
2022-11-30T18:54:13.846Z,3.70
2022-11-30T18:56:42.068Z,3.60
2022-11-30T18:59:14.226Z,3.70
2022-11-30T19:01:42.811Z,3.70
2022-11-30T19:04:12.083Z,3.60
2022-11-30T19:06:41.632Z,3.60
2022-11-30T19:09:11.598Z,3.70
2022-11-30T19:11:42.647Z,3.60
2022-11-30T19:14:14.090Z,3.60
2022-11-30T19:16:42.462Z,3.60
2022-11-30T19:19:14.092Z,3.60
2022-11-30T19:21:47.345Z,3.50
2022-11-30T19:24:15.416Z,3.50
2022-11-30T19:26:44.762Z,3.60
2022-11-30T19:29:13.419Z,3.70
2022-11-30T19:31:41.338Z,3.60
2022-11-30T19:34:12.973Z,3.60
2022-11-30T19:36:41.749Z,3.50
2022-11-30T19:39:11.970Z,3.60
2022-11-30T19:41:39.994Z,3.50
2022-11-30T19:44:14.175Z,3.50
2022-11-30T19:46:42.447Z,3.60
2022-11-30T19:49:11.865Z,3.50
2022-11-30T19:51:39.825Z,3.50
2022-11-30T19:54:08.099Z,3.50
2022-11-30T19:56:37.260Z,3.50
2022-11-30T19:59:06.217Z,3.40
2022-11-30T20:01:36.222Z,3.30
2022-11-30T20:04:05.551Z,3.40
2022-11-30T20:06:36.067Z,3.40
2022-11-30T20:09:04.301Z,3.40
2022-11-30T20:11:32.722Z,3.50
2022-11-30T20:14:00.752Z,3.30
2022-11-30T20:16:29.491Z,3.40
2022-11-30T20:19:01.270Z,3.50
2022-11-30T20:21:31.089Z,3.60
2022-11-30T20:24:01.010Z,3.70
2022-11-30T20:26:31.719Z,3.50
2022-11-30T20:29:01.776Z,3.60
2022-11-30T20:31:31.362Z,3.80
2022-11-30T20:34:01.290Z,3.80
2022-11-30T20:36:29.365Z,3.80
2022-11-30T20:38:58.929Z,3.90
2022-11-30T20:41:27.318Z,3.90
2022-11-30T20:43:56.000Z,3.90
2022-11-30T20:46:26.059Z,3.90
2022-11-30T20:48:54.914Z,4.10
2022-11-30T20:51:33.428Z,4.00
2022-11-30T20:54:04.297Z,4.10
2022-11-30T20:56:32.365Z,4.00
2022-11-30T20:59:02.815Z,4.00
2022-11-30T21:01:31.702Z,3.90
2022-11-30T21:04:00.818Z,3.90
2022-11-30T21:06:31.095Z,3.80
2022-11-30T21:09:00.004Z,3.90
2022-11-30T21:11:29.482Z,3.90
2022-11-30T21:13:58.727Z,4.00
2022-11-30T21:16:29.453Z,4.00
2022-11-30T21:18:59.622Z,3.90
2022-11-30T21:21:31.864Z,4.10
2022-11-30T21:24:01.460Z,4.10
2022-11-30T21:26:31.287Z,4.20
2022-11-30T21:29:02.424Z,4.20
2022-11-30T21:31:31.114Z,3.90
2022-11-30T21:33:59.297Z,3.90
2022-11-30T21:36:27.538Z,3.80
2022-11-30T21:39:05.053Z,3.90
2022-11-30T21:41:34.902Z,3.90
2022-11-30T21:44:02.971Z,3.90
2022-11-30T21:46:31.111Z,3.90
2022-11-30T21:48:59.328Z,3.90
2022-11-30T21:51:29.696Z,3.90
2022-11-30T21:54:00.684Z,3.90
2022-11-30T21:56:30.164Z,3.60
2022-11-30T21:58:58.692Z,3.80
2022-11-30T22:01:29.028Z,3.80
2022-11-30T22:03:57.911Z,3.80
2022-11-30T22:06:27.137Z,3.90
2022-11-30T22:09:03.058Z,3.80
2022-11-30T22:11:32.089Z,3.90
2022-11-30T22:13:59.956Z,4.00
2022-11-30T22:16:35.657Z,4.00
2022-11-30T22:19:04.833Z,4.00
2022-11-30T22:21:34.054Z,4.10
2022-11-30T22:24:05.536Z,4.10
2022-11-30T22:26:35.180Z,4.00
2022-11-30T22:29:05.678Z,4.10
2022-11-30T22:31:36.179Z,4.20
2022-11-30T22:34:04.488Z,4.10
2022-11-30T22:36:35.033Z,4.10
2022-11-30T22:39:07.625Z,4.00
